Terminal Aerodrome Forecast
Issued by NWS

Home | Current Version | Previous Version | Text Only | Print | Product List | Glossary On
Versions: 1 2 3 4 5 6 7 8 9 10 11 12 13 14 15 16 17 18 19 20 21 22
000
FTUS41 KBTV 250931 AAC
TAFMPV
TAF AMD
KMPV 250931Z 2510/2606 VRB03KT P6SM SCT120
      TEMPO 2510/2512 1 1/2SM BR BKN001
     FM251200 00000KT P6SM FEW250
     FM251800 22006KT P6SM SCT050
     FM252300 20004KT 6SM -SHRA BR OVC045
     FM260200 24006KT P6SM OVC040
     FM260500 27006KT P6SM OVC030=

USA.gov is the U.S. government's official web portal to all federal, state and local government web resources and services.